createdAt,value
2018-03-20T00:01:53.062Z,62.97
2018-03-20T00:04:20.529Z,63.09
2018-03-20T00:06:47.994Z,63.52
2018-03-20T00:09:15.454Z,63.58
2018-03-20T00:11:42.921Z,63.93
2018-03-20T00:14:10.365Z,64.99
2018-03-20T00:16:37.815Z,66.04
2018-03-20T00:19:05.281Z,66.31
2018-03-20T00:21:36.110Z,66.02
2018-03-20T00:24:03.560Z,66.06
2018-03-20T00:26:31.026Z,66.92
2018-03-20T00:28:59.016Z,67.67
2018-03-20T00:31:26.935Z,67.77
2018-03-20T00:33:54.382Z,67.54
2018-03-20T00:36:21.838Z,67.10
2018-03-20T00:38:49.295Z,67.03
2018-03-20T00:41:16.771Z,67.79
2018-03-20T00:43:44.234Z,67.55
2018-03-20T00:46:11.687Z,67.49
2018-03-20T00:48:39.146Z,67.78
2018-03-20T00:51:06.590Z,68.23
2018-03-20T00:53:34.061Z,68.05
2018-03-20T00:56:02.062Z,67.79
2018-03-20T00:58:29.559Z,67.57
2018-03-20T01:00:57.006Z,67.98
2018-03-20T01:03:24.457Z,67.65
2018-03-20T01:05:51.911Z,68.44
2018-03-20T01:08:19.370Z,68.51
2018-03-20T01:10:46.821Z,68.61
2018-03-20T01:13:15.075Z,68.85
2018-03-20T01:15:42.710Z,69.25
2018-03-20T01:18:10.223Z,69.78
2018-03-20T01:20:37.679Z,69.82
2018-03-20T01:23:05.184Z,69.97
2018-03-20T01:25:32.636Z,69.75
2018-03-20T01:28:00.130Z,69.67
2018-03-20T01:30:27.578Z,69.95
2018-03-20T01:32:55.035Z,70.11
2018-03-20T01:35:22.493Z,69.98
2018-03-20T01:37:49.949Z,69.52
2018-03-20T01:40:17.418Z,69.86
2018-03-20T01:42:44.862Z,70.48
2018-03-20T01:45:12.496Z,70.78
2018-03-20T01:47:39.939Z,70.30
2018-03-20T01:50:07.385Z,71.16
2018-03-20T01:52:35.431Z,70.88
2018-03-20T01:55:03.028Z,71.02
2018-03-20T01:57:30.485Z,70.86
2018-03-20T01:59:57.933Z,70.89
2018-03-20T02:02:25.420Z,70.61
2018-03-20T02:04:52.880Z,70.86
2018-03-20T02:07:20.327Z,71.14
2018-03-20T02:09:47.796Z,71.10
2018-03-20T02:12:15.251Z,71.36
2018-03-20T02:14:42.710Z,71.82
2018-03-20T02:17:10.169Z,71.94
2018-03-20T02:19:37.628Z,72.35
2018-03-20T02:22:05.064Z,72.32
2018-03-20T02:24:32.528Z,72.22
2018-03-20T02:26:59.972Z,72.59
2018-03-20T02:29:27.439Z,72.37
2018-03-20T02:31:54.886Z,72.11
2018-03-20T02:34:22.324Z,72.59
2018-03-20T02:36:49.801Z,72.91
2018-03-20T02:39:17.263Z,72.96
2018-03-20T02:41:44.710Z,73.23
2018-03-20T02:44:12.744Z,73.75
2018-03-20T02:46:40.250Z,73.51
2018-03-20T02:49:08.127Z,74.03
2018-03-20T02:51:35.605Z,73.62
2018-03-20T02:54:03.085Z,73.39
2018-03-20T02:56:30.542Z,73.35
2018-03-20T02:58:58.002Z,73.14
2018-03-20T03:01:25.443Z,73.68
2018-03-20T03:03:52.910Z,73.28
2018-03-20T03:06:20.774Z,72.98
2018-03-20T03:08:48.237Z,72.49
2018-03-20T03:11:15.703Z,72.13
2018-03-20T03:13:43.146Z,71.09
2018-03-20T03:16:11.343Z,69.67
2018-03-20T03:18:38.805Z,69.02
2018-03-20T03:21:06.256Z,69.00
2018-03-20T03:23:33.722Z,68.83
2018-03-20T03:26:01.178Z,68.81
2018-03-20T03:28:28.655Z,69.19
2018-03-20T03:30:56.102Z,69.83
2018-03-20T03:33:23.570Z,68.94
2018-03-20T03:35:51.016Z,68.77
2018-03-20T03:38:18.485Z,68.22
2018-03-20T03:40:45.945Z,68.54
2018-03-20T03:43:13.382Z,68.90
2018-03-20T03:45:41.176Z,68.76
2018-03-20T03:48:08.622Z,68.27
2018-03-20T03:50:36.078Z,67.87
2018-03-20T03:53:03.517Z,67.66
2018-03-20T03:55:30.999Z,68.03
2018-03-20T03:57:58.448Z,68.34
2018-03-20T04:00:26.067Z,67.90
2018-03-20T04:02:54.090Z,67.72
2018-03-20T04:05:21.850Z,67.36
2018-03-20T04:07:49.655Z,67.05
2018-03-20T04:10:17.106Z,67.43
2018-03-20T04:12:44.585Z,67.24
2018-03-20T04:15:12.036Z,67.91
2018-03-20T04:17:39.498Z,67.56
2018-03-20T04:20:07.013Z,67.26
2018-03-20T04:22:34.531Z,67.52
2018-03-20T04:25:01.986Z,67.96
2018-03-20T04:27:29.446Z,67.30
2018-03-20T04:29:56.882Z,67.75
2018-03-20T04:32:24.335Z,68.42
2018-03-20T04:34:51.784Z,67.62
2018-03-20T04:37:19.254Z,67.75
2018-03-20T04:39:46.693Z,67.10
2018-03-20T04:42:14.143Z,68.04
2018-03-20T04:44:41.605Z,67.66
2018-03-20T04:47:09.054Z,67.45
2018-03-20T04:49:36.516Z,67.73
2018-03-20T04:52:03.970Z,68.53
2018-03-20T04:54:31.428Z,68.40
2018-03-20T04:56:58.892Z,67.70
2018-03-20T04:59:26.349Z,68.05
2018-03-20T05:01:53.802Z,68.32
2018-03-20T05:04:21.338Z,68.84
2018-03-20T05:06:48.923Z,68.63
2018-03-20T05:09:16.523Z,68.95
2018-03-20T05:11:44.028Z,68.29
2018-03-20T05:14:11.500Z,68.23
2018-03-20T05:16:38.952Z,68.65
2018-03-20T05:19:12.031Z,68.63
2018-03-20T05:21:45.095Z,69.07
2018-03-20T05:24:12.559Z,69.24
2018-03-20T05:26:40.029Z,69.29
2018-03-20T05:29:07.480Z,69.26
2018-03-20T05:31:34.940Z,69.29
2018-03-20T05:34:02.385Z,69.25
2018-03-20T05:36:29.821Z,69.23
2018-03-20T05:38:57.271Z,69.41
2018-03-20T05:41:24.754Z,69.96
2018-03-20T05:43:52.212Z,70.12
2018-03-20T05:46:25.320Z,70.38
2018-03-20T05:48:56.360Z,70.19
2018-03-20T05:54:22.508Z,70.34
2018-03-20T05:56:49.964Z,70.75
2018-03-20T05:59:17.421Z,70.91
2018-03-20T06:01:44.879Z,71.29
2018-03-20T06:04:12.406Z,70.92
2018-03-20T06:06:39.857Z,70.54
2018-03-20T06:09:07.341Z,70.96
2018-03-20T06:11:34.795Z,71.29
2018-03-20T06:14:02.526Z,71.10
2018-03-20T06:16:29.981Z,70.88
2018-03-20T06:18:57.440Z,70.48
2018-03-20T06:21:24.899Z,70.30
2018-03-20T06:23:52.648Z,70.18
2018-03-20T06:26:20.119Z,69.38
2018-03-20T06:28:48.172Z,69.52
2018-03-20T06:31:15.686Z,68.98
2018-03-20T06:33:43.131Z,68.88
2018-03-20T06:36:10.586Z,68.29
2018-03-20T06:38:38.254Z,68.10
2018-03-20T06:41:06.995Z,67.89
2018-03-20T06:43:36.465Z,67.70
2018-03-20T06:46:04.310Z,66.96
2018-03-20T06:48:31.772Z,66.04
2018-03-20T06:50:59.442Z,65.66
2018-03-20T06:53:26.887Z,65.09
2018-03-20T06:55:54.401Z,65.66
2018-03-20T06:58:25.459Z,65.14
2018-03-20T07:00:53.069Z,64.49
2018-03-20T07:03:20.514Z,64.28
2018-03-20T07:05:48.332Z,62.94
2018-03-20T07:08:16.497Z,63.24
2018-03-20T07:10:44.058Z,62.88
2018-03-20T07:13:11.606Z,62.96
2018-03-20T07:15:39.069Z,61.97
2018-03-20T07:18:06.550Z,61.63
2018-03-20T07:20:34.135Z,61.69
2018-03-20T07:23:01.749Z,61.76
2018-03-20T07:25:29.254Z,60.25
2018-03-20T07:27:57.272Z,60.14
2018-03-20T07:30:24.728Z,59.69
2018-03-20T07:32:52.495Z,59.52
2018-03-20T07:35:20.119Z,58.82
2018-03-20T07:37:47.597Z,58.87
2018-03-20T07:40:15.120Z,57.46
2018-03-20T07:42:42.674Z,57.71
2018-03-20T07:45:10.167Z,57.11
2018-03-20T07:47:37.701Z,56.29
2018-03-20T07:50:05.220Z,56.74
2018-03-20T07:52:32.738Z,56.60
2018-03-20T07:55:00.220Z,55.87
2018-03-20T07:57:27.740Z,55.06
2018-03-20T07:59:57.533Z,54.72
2018-03-20T08:02:25.019Z,54.23
2018-03-20T08:04:52.523Z,55.04
2018-03-20T08:07:20.077Z,53.85
2018-03-20T08:09:48.541Z,54.00
2018-03-20T08:12:16.085Z,53.98
2018-03-20T08:14:43.643Z,52.28
2018-03-20T08:17:11.195Z,51.91
2018-03-20T08:19:38.758Z,52.18
2018-03-20T08:22:06.250Z,53.81
2018-03-20T08:24:33.752Z,53.60
2018-03-20T08:27:01.209Z,53.54
2018-03-20T08:29:28.659Z,53.54
2018-03-20T08:31:56.105Z,53.68
2018-03-20T08:34:23.605Z,54.33
2018-03-20T08:36:51.095Z,52.95
2018-03-20T08:39:18.547Z,53.44
2018-03-20T08:41:46.004Z,52.78
2018-03-20T08:44:13.461Z,52.39
2018-03-20T08:46:40.994Z,52.71
2018-03-20T08:49:16.720Z,51.71
2018-03-20T08:51:47.646Z,53.13
2018-03-20T08:54:15.102Z,52.46
2018-03-20T08:56:42.567Z,52.15
2018-03-20T08:59:10.010Z,52.18
2018-03-20T09:01:37.524Z,52.30
2018-03-20T09:04:04.992Z,51.65
2018-03-20T09:06:32.443Z,50.21
2018-03-20T09:09:02.988Z,48.36
2018-03-20T09:11:30.482Z,48.39
2018-03-20T09:13:58.050Z,48.81
2018-03-20T09:16:27.792Z,48.78
2018-03-20T09:18:55.305Z,49.23
2018-03-20T09:21:22.780Z,49.54
2018-03-20T09:23:50.227Z,48.24
2018-03-20T09:26:17.674Z,49.14
2018-03-20T09:28:45.234Z,47.68
2018-03-20T09:31:12.701Z,47.97
2018-03-20T09:33:40.153Z,47.90
2018-03-20T09:36:07.651Z,46.62
2018-03-20T09:38:35.112Z,46.91
2018-03-20T09:41:04.037Z,46.14
2018-03-20T09:43:31.618Z,46.00
2018-03-20T09:45:59.109Z,45.50
2018-03-20T09:48:26.611Z,46.36
2018-03-20T09:50:54.077Z,45.83
2018-03-20T09:53:22.387Z,46.20
2018-03-20T09:55:49.824Z,45.25
2018-03-20T09:58:19.308Z,44.89
2018-03-20T10:00:46.910Z,44.62
2018-03-20T10:03:14.416Z,43.83
2018-03-20T10:05:41.859Z,44.87
2018-03-20T10:08:09.306Z,44.34
2018-03-20T10:10:36.796Z,43.07
2018-03-20T10:13:04.239Z,42.14
2018-03-20T10:15:31.692Z,43.60
2018-03-20T10:17:59.186Z,42.89
2018-03-20T10:20:26.652Z,41.38
2018-03-20T10:22:54.123Z,43.29
2018-03-20T10:25:21.616Z,43.18
2018-03-20T10:27:49.740Z,43.63
2018-03-20T10:30:17.202Z,40.89
2018-03-20T10:32:44.662Z,42.01
2018-03-20T10:35:12.151Z,43.61
2018-03-20T10:37:39.586Z,43.03
2018-03-20T10:40:07.067Z,41.49
2018-03-20T10:42:34.529Z,40.28
2018-03-20T10:45:01.979Z,39.77
2018-03-20T10:47:29.461Z,40.12
2018-03-20T10:49:56.912Z,39.06
2018-03-20T10:52:24.374Z,38.48
2018-03-20T10:54:51.918Z,36.87
2018-03-20T10:57:19.429Z,37.82
2018-03-20T10:59:46.879Z,36.34
2018-03-20T11:02:20.189Z,35.54
2018-03-20T11:04:47.627Z,32.52
2018-03-20T11:07:15.089Z,32.59
2018-03-20T11:09:42.543Z,32.86
2018-03-20T11:12:10.050Z,31.92
2018-03-20T11:14:37.688Z,30.07
2018-03-20T11:17:05.224Z,29.69
2018-03-20T11:19:32.686Z,31.53
2018-03-20T11:22:00.501Z,30.54
2018-03-20T11:24:28.020Z,30.01
2018-03-20T11:26:55.491Z,29.73
2018-03-20T11:29:22.929Z,29.34
2018-03-20T11:31:50.396Z,29.96
2018-03-20T11:34:17.857Z,30.36
2018-03-20T11:36:45.305Z,30.57
2018-03-20T11:39:12.851Z,30.52
2018-03-20T11:41:40.318Z,29.75
2018-03-20T11:44:07.761Z,27.84
2018-03-20T11:46:35.873Z,30.98
2018-03-20T11:49:03.422Z,29.99
2018-03-20T11:51:30.891Z,29.58
2018-03-20T11:53:58.363Z,28.71
2018-03-20T11:56:25.834Z,27.04
2018-03-20T11:58:53.278Z,26.30
2018-03-20T12:01:20.725Z,27.87
2018-03-20T12:03:48.178Z,28.08
2018-03-20T12:06:15.630Z,28.73
2018-03-20T12:08:50.690Z,29.48
2018-03-20T12:11:18.135Z,32.50
2018-03-20T12:13:45.601Z,32.71
2018-03-20T12:16:13.043Z,34.10
2018-03-20T12:18:40.486Z,32.60
2018-03-20T12:21:07.955Z,30.45
2018-03-20T12:23:35.402Z,33.18
2018-03-20T12:26:02.850Z,33.48
2018-03-20T12:28:30.580Z,33.46
2018-03-20T12:30:58.045Z,33.78
2018-03-20T12:33:25.493Z,34.42
2018-03-20T12:35:52.954Z,35.30
2018-03-20T12:38:20.571Z,37.98
2018-03-20T12:40:48.013Z,39.67
2018-03-20T12:43:19.418Z,42.49
2018-03-20T12:45:48.014Z,43.45
2018-03-20T12:48:23.080Z,41.89
2018-03-20T12:51:04.551Z,41.95
2018-03-20T12:53:35.661Z,48.55
2018-03-20T12:56:05.673Z,53.99
2018-03-20T12:58:40.786Z,56.35
2018-03-20T13:01:12.756Z,59.38
2018-03-20T13:03:46.831Z,63.20
2018-03-20T13:06:17.872Z,63.50
2018-03-20T13:08:46.356Z,62.84
2018-03-20T13:11:15.199Z,63.47
2018-03-20T13:13:42.981Z,63.05
2018-03-20T13:16:13.274Z,61.84
2018-03-20T13:18:49.457Z,61.21
2018-03-20T13:21:21.919Z,61.74
2018-03-20T13:23:50.143Z,60.99
2018-03-20T13:26:19.940Z,61.00
2018-03-20T13:28:48.357Z,59.98
2018-03-20T13:31:17.960Z,61.39
2018-03-20T13:33:46.870Z,58.11
2018-03-20T13:36:20.135Z,59.22
2018-03-20T13:38:48.138Z,58.98
2018-03-20T13:41:15.630Z,60.92
2018-03-20T13:43:43.465Z,60.56
2018-03-20T13:46:10.908Z,59.76
2018-03-20T13:48:38.358Z,58.27
2018-03-20T13:51:06.493Z,57.18
2018-03-20T13:53:34.026Z,54.87
2018-03-20T13:56:03.242Z,56.49
2018-03-20T13:58:30.693Z,57.07
2018-03-20T14:00:58.177Z,58.60
2018-03-20T14:03:25.605Z,58.87
2018-03-20T14:05:53.157Z,57.42
2018-03-20T14:08:20.594Z,57.88
2018-03-20T14:10:48.062Z,57.70
2018-03-20T14:13:15.509Z,56.41
2018-03-20T14:15:44.943Z,56.22
2018-03-20T14:18:13.356Z,55.51
2018-03-20T14:20:40.885Z,54.25
2018-03-20T14:23:08.528Z,55.38
2018-03-20T14:25:37.365Z,55.21
2018-03-20T14:28:06.806Z,54.03
2018-03-20T14:30:34.353Z,55.16
2018-03-20T14:33:03.103Z,54.18
2018-03-20T14:35:33.265Z,55.66
2018-03-20T14:38:02.656Z,56.25
2018-03-20T14:40:30.736Z,57.39
2018-03-20T14:43:00.367Z,57.41
2018-03-20T14:48:14.443Z,57.59
2018-03-20T14:50:42.774Z,57.11
2018-03-20T14:53:11.334Z,56.58
2018-03-20T14:55:39.884Z,56.24
2018-03-20T14:58:14.904Z,55.30
2018-03-20T15:00:42.354Z,55.66
2018-03-20T15:03:17.674Z,58.23
2018-03-20T15:05:52.545Z,59.66
2018-03-20T15:08:24.415Z,61.47
2018-03-20T15:10:59.646Z,62.75
2018-03-20T15:13:33.302Z,65.29
2018-03-20T15:18:50.462Z,66.84
2018-03-20T15:21:17.999Z,66.73
2018-03-20T15:23:45.468Z,66.95
2018-03-20T15:26:13.101Z,67.39
2018-03-20T15:28:40.784Z,67.51
2018-03-20T15:31:10.321Z,68.21
2018-03-20T15:33:39.626Z,69.60
2018-03-20T15:36:07.942Z,70.71
2018-03-20T15:38:40.587Z,72.46
2018-03-20T15:41:08.542Z,73.83
2018-03-20T15:43:41.629Z,75.24
2018-03-20T15:46:09.543Z,75.71
2018-03-20T15:48:37.002Z,76.52
2018-03-20T15:51:04.577Z,76.97
2018-03-20T15:53:32.026Z,76.01
2018-03-20T15:56:00.202Z,74.78
2018-03-20T15:58:27.645Z,75.62
2018-03-20T16:00:55.144Z,76.29
2018-03-20T16:03:22.620Z,75.57
2018-03-20T16:05:50.080Z,75.22
2018-03-20T16:08:17.518Z,74.77
2018-03-20T16:10:45.003Z,75.82
2018-03-20T16:13:12.508Z,75.35
2018-03-20T16:15:39.955Z,76.14
2018-03-20T16:18:07.434Z,75.82
2018-03-20T16:20:34.907Z,76.64
2018-03-20T16:23:02.368Z,77.73
2018-03-20T16:25:29.854Z,77.65
2018-03-20T16:27:57.349Z,77.59
2018-03-20T16:30:24.803Z,77.65
2018-03-20T16:32:52.273Z,79.20
2018-03-20T16:35:19.739Z,80.78
2018-03-20T16:37:47.175Z,81.44
2018-03-20T16:40:29.841Z,81.70
2018-03-20T16:43:00.144Z,81.82
2018-03-20T16:45:27.595Z,81.57
2018-03-20T16:47:55.108Z,81.75
2018-03-20T16:50:22.575Z,81.63
2018-03-20T16:52:50.035Z,82.73
2018-03-20T16:55:17.484Z,81.50
2018-03-20T16:57:45.088Z,81.72
2018-03-20T17:00:12.543Z,82.66
2018-03-20T17:02:40.439Z,82.38
2018-03-20T17:05:07.943Z,82.20
2018-03-20T17:07:35.545Z,82.39
2018-03-20T17:10:03.510Z,82.40
2018-03-20T17:12:30.969Z,81.89
2018-03-20T17:14:58.434Z,82.86
2018-03-20T17:17:26.091Z,82.05
2018-03-20T17:19:53.614Z,81.50
2018-03-20T17:22:21.082Z,81.19
2018-03-20T17:24:48.580Z,82.22
2018-03-20T17:27:16.323Z,80.36
2018-03-20T17:29:45.087Z,80.56
2018-03-20T17:32:12.531Z,81.63
2018-03-20T17:34:40.252Z,81.54
2018-03-20T17:37:07.713Z,81.34
2018-03-20T17:39:35.244Z,81.67
2018-03-20T17:42:02.685Z,81.66
2018-03-20T17:44:30.263Z,82.03
2018-03-20T17:46:57.715Z,82.27
2018-03-20T17:49:25.216Z,83.29
2018-03-20T17:51:52.675Z,83.23
2018-03-20T17:54:20.137Z,82.39
2018-03-20T17:56:47.619Z,82.39
2018-03-20T17:59:15.167Z,82.45
2018-03-20T18:01:42.685Z,82.13
2018-03-20T18:04:10.138Z,82.48
2018-03-20T18:06:37.582Z,82.08
2018-03-20T18:09:05.044Z,82.64
2018-03-20T18:11:32.490Z,82.11
2018-03-20T18:13:59.971Z,82.48
2018-03-20T18:16:27.443Z,82.34
2018-03-20T18:18:54.907Z,82.31
2018-03-20T18:21:22.745Z,82.27
2018-03-20T18:23:50.211Z,82.09
2018-03-20T18:26:17.704Z,81.77
2018-03-20T18:28:45.244Z,81.77
2018-03-20T18:31:12.725Z,82.40
2018-03-20T18:33:40.204Z,82.50
2018-03-20T18:36:07.679Z,82.16
2018-03-20T18:38:35.154Z,82.00
2018-03-20T18:41:02.608Z,82.09
2018-03-20T18:43:30.074Z,82.90
2018-03-20T18:45:57.634Z,82.89
2018-03-20T18:48:25.280Z,83.18
2018-03-20T18:50:52.755Z,83.28
2018-03-20T18:53:20.487Z,83.27
2018-03-20T18:55:48.738Z,84.08
2018-03-20T18:58:16.197Z,84.14
2018-03-20T19:00:43.667Z,84.11
2018-03-20T19:03:11.506Z,84.59
2018-03-20T19:05:38.980Z,84.98
2018-03-20T19:08:06.460Z,84.64
2018-03-20T19:10:33.928Z,84.94
2018-03-20T19:13:04.252Z,85.23
2018-03-20T19:15:31.725Z,85.43
2018-03-20T19:17:59.229Z,84.97
2018-03-20T19:20:27.987Z,85.31
2018-03-20T19:22:55.505Z,85.25
2018-03-20T19:25:23.145Z,84.59
2018-03-20T19:27:51.166Z,85.22
2018-03-20T19:30:19.479Z,85.53
2018-03-20T19:32:46.916Z,85.22
2018-03-20T19:35:14.409Z,84.92
2018-03-20T19:37:41.946Z,84.65
2018-03-20T19:40:09.596Z,85.16
2018-03-20T19:42:37.166Z,84.91
2018-03-20T19:45:04.682Z,84.89
2018-03-20T19:47:32.204Z,84.77
2018-03-20T19:50:11.863Z,84.61
2018-03-20T19:52:48.172Z,84.75
2018-03-20T19:55:17.003Z,84.87
2018-03-20T19:57:44.482Z,84.62
2018-03-20T20:00:12.180Z,85.27
2018-03-20T20:02:39.645Z,85.56
2018-03-20T20:05:08.201Z,85.97
2018-03-20T20:07:35.715Z,86.33
2018-03-20T20:10:03.309Z,86.26
2018-03-20T20:12:30.775Z,86.24
2018-03-20T20:14:58.358Z,86.40
2018-03-20T20:17:26.015Z,85.62
2018-03-20T20:19:53.470Z,84.83
2018-03-20T20:22:21.029Z,85.00
2018-03-20T20:24:48.743Z,84.84
2018-03-20T20:27:16.384Z,84.10
2018-03-20T20:29:43.935Z,84.15
2018-03-20T20:32:11.502Z,84.00
2018-03-20T20:34:39.710Z,83.90
2018-03-20T20:37:07.170Z,83.39
2018-03-20T20:39:34.670Z,83.62
2018-03-20T20:42:02.466Z,83.87
2018-03-20T20:44:29.953Z,83.62
2018-03-20T20:46:57.415Z,83.49
2018-03-20T20:49:25.016Z,83.31
2018-03-20T20:51:52.523Z,83.44
2018-03-20T20:54:19.995Z,83.38
2018-03-20T20:56:47.470Z,82.83
2018-03-20T20:59:14.959Z,82.65
2018-03-20T21:01:42.470Z,82.76
2018-03-20T21:04:10.091Z,82.54
2018-03-20T21:06:37.590Z,82.17
2018-03-20T21:09:05.032Z,82.30
2018-03-20T21:11:32.502Z,82.36
2018-03-20T21:14:00.148Z,83.05
2018-03-20T21:16:27.625Z,82.46
2018-03-20T21:18:55.103Z,81.73
2018-03-20T21:21:22.768Z,82.57
2018-03-20T21:23:50.238Z,82.48
2018-03-20T21:26:17.707Z,82.37
2018-03-20T21:28:45.156Z,82.80
2018-03-20T21:31:12.608Z,82.21
2018-03-20T21:33:40.067Z,81.42
2018-03-20T21:36:07.522Z,81.22
2018-03-20T21:38:35.001Z,81.55
2018-03-20T21:41:02.525Z,80.46
2018-03-20T21:43:29.974Z,80.69
2018-03-20T21:45:57.422Z,80.21
2018-03-20T21:48:24.893Z,80.49
2018-03-20T21:50:52.350Z,81.01
2018-03-20T21:53:19.789Z,80.21
2018-03-20T21:55:47.348Z,81.20
2018-03-20T21:58:14.787Z,81.47
2018-03-20T22:00:42.269Z,82.17
2018-03-20T22:03:09.741Z,82.16
2018-03-20T22:05:37.206Z,82.11
2018-03-20T22:08:04.666Z,82.21
2018-03-20T22:10:32.108Z,81.71
2018-03-20T22:12:59.594Z,81.92
2018-03-20T22:15:27.046Z,81.95
2018-03-20T22:17:54.596Z,82.26
2018-03-20T22:20:22.054Z,82.04
2018-03-20T22:22:49.521Z,81.64
2018-03-20T22:25:17.027Z,81.83
2018-03-20T22:27:44.483Z,81.00
2018-03-20T22:30:11.942Z,80.67
2018-03-20T22:32:39.476Z,80.71
2018-03-20T22:35:06.981Z,80.90
2018-03-20T22:37:34.433Z,80.72
2018-03-20T22:40:01.898Z,80.58
2018-03-20T22:42:29.337Z,80.17
2018-03-20T22:44:56.867Z,79.53
2018-03-20T22:47:24.338Z,79.52
2018-03-20T22:49:51.844Z,79.56
2018-03-20T22:52:19.344Z,79.66
2018-03-20T22:54:46.819Z,80.12
2018-03-20T22:57:14.291Z,79.61
2018-03-20T22:59:41.792Z,79.89
2018-03-20T23:02:09.377Z,79.35
2018-03-20T23:04:36.924Z,80.52
2018-03-20T23:07:05.037Z,79.88
2018-03-20T23:09:34.665Z,80.37
2018-03-20T23:12:02.115Z,80.34
2018-03-20T23:14:29.599Z,79.65
2018-03-20T23:16:57.095Z,79.26
2018-03-20T23:19:24.522Z,79.04
2018-03-20T23:21:51.969Z,79.80
2018-03-20T23:24:19.420Z,79.84
2018-03-20T23:26:46.871Z,79.90
2018-03-20T23:29:14.361Z,79.93
2018-03-20T23:31:41.810Z,79.94
2018-03-20T23:34:09.273Z,79.55
2018-03-20T23:36:36.731Z,80.08
2018-03-20T23:39:04.210Z,79.40
2018-03-20T23:41:31.637Z,79.94
2018-03-20T23:43:59.092Z,79.74
2018-03-20T23:46:26.545Z,80.06
2018-03-20T23:48:54.002Z,80.64
2018-03-20T23:51:21.459Z,80.55
2018-03-20T23:53:48.928Z,80.92
2018-03-20T23:56:16.386Z,81.09
2018-03-20T23:58:43.823Z,81.79
